Time;durP1;ratioP1;P1;durP2;ratioP2;P2;SDS_P1;SDS_P2;PMS_P1;PMS_P2;Temp;Humidity;BMP_temperature;BMP_pressure;BME280_temperature;BME280_humidity;BME280_pressure;Samples;Min_cycle;Max_cycle;Signal;HPM_P1;HPM_P2
2022/10/25 00:02:18;;;;;;;1.00;0.60;;;;;;;19.60;60.11;100829.63;5047590;28;20072;-40
2022/10/25 00:04:45;;;;;;;0.85;0.43;;;;;;;19.60;60.24;100829.63;5045270;28;20029;-41
2022/10/25 00:07:11;;;;;;;0.30;0.30;;;;;;;19.60;60.23;100827.00;5042940;28;20179;-41
2022/10/25 00:09:36;;;;;;;0.80;0.30;;;;;;;19.60;60.17;100824.34;5041832;28;20045;-40
2022/10/25 00:12:02;;;;;;;0.65;0.57;;;;;;;19.60;60.24;100828.78;5049825;28;20032;-40
2022/10/25 00:14:27;;;;;;;0.82;0.30;;;;;;;19.60;60.29;100829.63;5050068;28;20072;-40
2022/10/25 00:16:52;;;;;;;0.60;0.45;;;;;;;19.59;60.21;100827.06;5052351;28;20021;-40
2022/10/25 00:19:18;;;;;;;0.50;0.40;;;;;;;19.59;60.16;100824.44;5047970;28;20033;-40
2022/10/25 00:21:43;;;;;;;0.70;0.40;;;;;;;19.59;60.10;100829.69;5051178;28;20057;-40
2022/10/25 00:24:11;;;;;;;0.52;0.40;;;;;;;19.58;60.12;100828.03;5050424;28;20461;-40
2022/10/25 00:26:40;;;;;;;0.77;0.50;;;;;;;19.58;60.13;100835.94;5047975;28;20027;-40
2022/10/25 00:29:05;;;;;;;0.70;0.28;;;;;;;19.60;60.04;100836.69;5054533;28;20036;-40
2022/10/25 00:31:31;;;;;;;0.47;0.35;;;;;;;19.59;60.14;100841.09;5050740;28;20118;-40
2022/10/25 00:33:56;;;;;;;0.50;0.40;;;;;;;19.58;60.05;100839.38;5046143;28;20040;-41
2022/10/25 00:36:23;;;;;;;0.50;0.50;;;;;;;19.57;60.05;100837.72;5051219;28;20140;-40
2022/10/25 00:38:49;;;;;;;0.40;0.30;;;;;;;19.57;60.00;100842.13;5052088;28;20051;-41
2022/10/25 00:41:18;;;;;;;0.32;0.30;;;;;;;19.57;60.09;100835.06;5047291;28;20041;-40
2022/10/25 00:43:48;;;;;;;0.88;0.50;;;;;;;19.57;60.16;100836.84;5053795;28;20064;-40
2022/10/25 00:46:16;;;;;;;0.50;0.30;;;;;;;19.58;60.08;100841.19;5054160;28;20041;-40
2022/10/25 00:48:51;;;;;;;0.35;0.30;;;;;;;19.57;60.18;100840.34;5052645;28;20505;-40
2022/10/25 00:51:18;;;;;;;1.17;0.60;;;;;;;19.57;60.12;100842.97;5047817;28;20680;-40
2022/10/25 00:53:43;;;;;;;0.70;0.40;;;;;;;19.58;60.18;100857.84;5048113;28;20083;-41
2022/10/25 00:56:20;;;;;;;0.95;0.50;;;;;;;19.57;60.30;100857.94;5053177;28;20484;-41
2022/10/25 00:58:50;;;;;;;0.60;0.40;;;;;;;19.58;60.12;100854.38;5051649;28;20033;-40
2022/10/25 01:01:16;;;;;;;0.60;0.40;;;;;;;19.58;59.96;100857.00;5053134;28;20040;-40
2022/10/25 01:03:45;;;;;;;0.63;0.30;;;;;;;19.57;60.05;100857.94;5042339;28;20044;-41
2022/10/25 01:06:28;;;;;;;0.77;0.52;;;;;;;19.56;59.91;100869.41;5051442;28;20037;-41
2022/10/25 01:08:55;;;;;;;0.57;0.40;;;;;;;19.57;59.97;100868.47;5052789;28;20040;-40
2022/10/25 01:11:20;;;;;;;0.95;0.30;;;;;;;19.55;60.01;100865.09;5055846;28;20068;-41
2022/10/25 01:13:47;;;;;;;0.55;0.35;;;;;;;19.55;60.21;100873.00;5047020;28;20487;-42
2022/10/25 01:16:54;;;;;;;0.30;0.30;;;;;;;19.54;60.04;100876.56;5046502;28;20044;-40
2022/10/25 01:19:42;;;;;;;0.40;0.35;;;;;;;19.54;60.05;100872.13;5035382;28;20047;-40
2022/10/25 01:22:36;;;;;;;0.90;0.47;;;;;;;19.54;60.01;100868.66;5048757;28;20760;-40
2022/10/25 01:25:07;;;;;;;0.77;0.40;;;;;;;19.55;59.92;100867.72;5048326;28;20047;-40
2022/10/25 01:28:10;;;;;;;0.47;0.35;;;;;;;19.55;59.84;100870.34;5049099;28;20032;-40
2022/10/25 01:31:04;;;;;;;0.50;0.32;;;;;;;19.53;60.12;100867.78;5045089;28;20041;-40
2022/10/25 01:33:38;;;;;;;0.73;0.55;;;;;;;19.54;60.07;100864.22;5045868;28;20063;-41
2022/10/25 01:36:12;;;;;;;0.55;0.40;;;;;;;19.54;59.99;100863.38;5043992;28;20040;-41
2022/10/25 01:38:43;;;;;;;1.25;0.45;;;;;;;19.53;60.02;100870.44;5044390;28;20031;-40
2022/10/25 01:41:17;;;;;;;0.40;0.30;;;;;;;19.54;59.94;100873.91;5051667;28;20040;-40
2022/10/25 01:43:59;;;;;;;0.87;0.40;;;;;;;19.52;59.79;100876.63;5049017;28;20112;-40
2022/10/25 01:46:28;;;;;;;0.43;0.30;;;;;;;19.54;60.05;100871.28;5045308;28;20292;-40
2022/10/25 01:49:17;;;;;;;0.90;0.30;;;;;;;19.52;60.03;100862.63;5043193;28;20044;-41
2022/10/25 01:51:42;;;;;;;0.70;0.60;;;;;;;19.51;60.04;100874.94;5045336;28;20037;-41
2022/10/25 01:54:24;;;;;;;0.20;0.20;;;;;;;19.52;59.92;100868.72;5047577;28;20406;-40
2022/10/25 01:57:16;;;;;;;0.57;0.50;;;;;;;19.52;59.92;100875.81;5052814;28;20155;-40
2022/10/25 01:59:55;;;;;;;0.47;0.40;;;;;;;19.51;60.07;100882.00;5041630;28;20044;-40
2022/10/25 02:02:35;;;;;;;0.43;0.32;;;;;;;19.50;59.87;100873.22;5048493;28;20407;-41
2022/10/25 02:05:19;;;;;;;1.27;0.50;;;;;;;19.52;59.86;100875.81;5052601;28;20086;-40
2022/10/25 02:08:14;;;;;;;0.53;0.40;;;;;;;19.50;60.02;100881.13;5057864;28;20808;-40
2022/10/25 02:11:00;;;;;;;0.20;0.20;;;;;;;19.51;59.94;100885.47;5040643;28;20524;-40
2022/10/25 02:13:41;;;;;;;0.40;0.40;;;;;;;19.51;59.93;100874.09;5046103;28;20063;-40
2022/10/25 02:16:11;;;;;;;0.45;0.45;;;;;;;19.50;59.81;100881.13;5054458;28;20033;-40
2022/10/25 02:18:40;;;;;;;0.45;0.32;;;;;;;19.50;60.07;100873.22;5045631;28;20041;-40
2022/10/25 02:21:09;;;;;;;0.68;0.43;;;;;;;19.51;59.92;100877.56;5054197;28;20108;-40
2022/10/25 02:23:36;;;;;;;0.60;0.40;;;;;;;19.52;59.93;100879.25;5050040;28;20029;-41
2022/10/25 02:26:06;;;;;;;0.40;0.30;;;;;;;19.51;59.93;100876.72;5050718;28;20028;-40
2022/10/25 02:28:33;;;;;;;0.40;0.40;;;;;;;19.48;59.92;100872.47;5048728;28;20037;-41
2022/10/25 02:31:00;;;;;;;0.30;0.30;;;;;;;19.50;59.96;100875.00;5054491;28;20041;-41
2022/10/25 02:33:25;;;;;;;0.52;0.30;;;;;;;19.49;59.69;100879.44;5057425;28;20037;-40
2022/10/25 02:36:09;;;;;;;0.35;0.30;;;;;;;19.48;59.92;100875.13;5050259;28;20095;-41
2022/10/25 02:38:35;;;;;;;0.30;0.30;;;;;;;19.49;60.08;100873.34;5047238;28;20120;-40
2022/10/25 02:44:47;;;;;;;0.43;0.40;;;;;;;19.48;59.89;100874.25;5048278;28;20055;-40
2022/10/25 02:47:12;;;;;;;0.28;0.22;;;;;;;19.48;59.85;100880.38;5053870;28;20064;-41
2022/10/25 02:49:38;;;;;;;0.63;0.40;;;;;;;19.48;59.84;100879.53;5050529;28;20044;-40
2022/10/25 02:52:03;;;;;;;0.82;0.38;;;;;;;19.47;59.86;100878.66;5053098;28;20163;-40
2022/10/25 02:54:29;;;;;;;0.40;0.30;;;;;;;19.48;60.00;100876.91;5055809;28;20593;-41
2022/10/25 02:56:54;;;;;;;0.50;0.40;;;;;;;19.47;59.85;100883.09;5057734;28;20143;-41
2022/10/25 02:59:20;;;;;;;0.30;0.30;;;;;;;19.46;59.82;100879.59;5048308;28;20477;-41
2022/10/25 03:01:45;;;;;;;0.30;0.30;;;;;;;19.48;59.88;100884.78;5054293;28;20044;-40
2022/10/25 03:04:11;;;;;;;0.40;0.35;;;;;;;19.46;59.77;100890.13;5050903;28;20449;-41
2022/10/25 03:06:36;;;;;;;0.60;0.40;;;;;;;19.46;59.97;100886.69;5050891;28;20040;-40
2022/10/25 03:09:02;;;;;;;0.20;0.20;;;;;;;19.46;59.90;100886.69;5044856;28;20094;-41
2022/10/25 03:11:27;;;;;;;0.35;0.30;;;;;;;19.45;59.91;100882.34;5055992;28;20028;-40
2022/10/25 03:13:53;;;;;;;0.50;0.22;;;;;;;19.46;59.97;100894.59;5050548;28;20032;-41
2022/10/25 03:16:18;;;;;;;0.28;0.20;;;;;;;19.47;59.80;100896.25;5046337;28;20048;-40
2022/10/25 03:18:44;;;;;;;0.57;0.30;;;;;;;19.46;59.83;100890.13;5048599;28;20045;-40
2022/10/25 03:21:09;;;;;;;0.30;0.30;;;;;;;19.46;59.92;100897.22;5047846;28;20033;-41
2022/10/25 03:23:35;;;;;;;0.93;0.40;;;;;;;19.47;59.93;100894.47;5053712;28;20047;-40
2022/10/25 03:26:00;;;;;;;0.57;0.40;;;;;;;19.46;59.86;100895.41;5049046;28;20036;-40
2022/10/25 03:28:29;;;;;;;0.55;0.40;;;;;;;19.47;59.83;100901.53;5049087;28;20063;-40
2022/10/25 03:30:56;;;;;;;0.20;0.20;;;;;;;19.45;59.93;100906.03;5044327;28;20066;-40
2022/10/25 03:33:22;;;;;;;0.20;0.20;;;;;;;19.44;59.82;100902.56;5042835;28;20127;-40
2022/10/25 03:35:54;;;;;;;0.40;0.40;;;;;;;19.46;59.80;100908.56;5046161;28;20094;-40
2022/10/25 03:38:20;;;;;;;0.77;0.30;;;;;;;19.45;59.81;100903.41;5050477;28;20705;-41
2022/10/25 03:40:46;;;;;;;0.20;0.20;;;;;;;19.45;59.83;100909.53;5042810;28;20024;-41
2022/10/25 03:43:11;;;;;;;0.30;0.30;;;;;;;19.44;59.94;100907.81;5051454;28;20036;-41
2022/10/25 03:45:37;;;;;;;0.70;0.43;;;;;;;19.44;59.91;100910.47;5039988;28;20044;-40
2022/10/25 03:48:03;;;;;;;0.40;0.40;;;;;;;19.45;59.78;100906.03;5040579;28;20052;-40
2022/10/25 03:50:28;;;;;;;0.40;0.30;;;;;;;19.45;59.91;100903.41;5049107;28;21012;-40
2022/10/25 03:52:53;;;;;;;0.47;0.25;;;;;;;19.45;59.83;100912.16;5049117;28;20033;-41
2022/10/25 03:55:19;;;;;;;0.70;0.30;;;;;;;19.45;59.56;100919.22;5048524;28;20040;-40
2022/10/25 03:57:44;;;;;;;0.30;0.30;;;;;;;19.44;59.74;100909.59;5052265;28;20632;-41
2022/10/25 04:00:10;;;;;;;0.93;0.30;;;;;;;19.44;59.85;100920.13;5047670;28;20036;-45
2022/10/25 04:02:35;;;;;;;0.45;0.20;;;;;;;19.43;59.88;100918.47;5049636;28;20029;-45
2022/10/25 04:05:01;;;;;;;0.60;0.40;;;;;;;19.44;59.71;100914.88;5041892;28;20044;-45
2022/10/25 04:07:26;;;;;;;0.47;0.45;;;;;;;19.43;59.92;100907.94;5048366;28;20032;-46
2022/10/25 04:09:51;;;;;;;0.80;0.40;;;;;;;19.44;59.71;100909.59;5045733;28;20036;-45
2022/10/25 04:12:17;;;;;;;0.35;0.30;;;;;;;19.44;59.86;100921.00;5052759;28;22033;-45
2022/10/25 04:14:42;;;;;;;0.47;0.30;;;;;;;19.43;59.85;100921.91;5049486;28;20704;-45
2022/10/25 04:17:07;;;;;;;0.35;0.22;;;;;;;19.43;59.89;100916.66;5040306;28;20045;-45
2022/10/25 04:19:33;;;;;;;0.20;0.20;;;;;;;19.42;59.86;100922.88;5041807;28;20636;-44
2022/10/25 04:22:01;;;;;;;0.40;0.28;;;;;;;19.42;59.82;100922.88;5046449;28;20040;-47
2022/10/25 04:24:26;;;;;;;0.40;0.30;;;;;;;19.43;59.83;100926.38;5045068;28;20033;-45
2022/10/25 04:26:52;;;;;;;0.35;0.30;;;;;;;19.42;59.81;100932.56;5047454;28;20036;-45
2022/10/25 04:29:17;;;;;;;0.30;0.20;;;;;;;19.43;59.83;100935.09;5064850;28;20040;-46
2022/10/25 04:31:42;;;;;;;0.30;0.30;;;;;;;19.42;59.76;100936.06;5042750;28;20099;-46
2022/10/25 04:34:08;;;;;;;0.70;0.50;;;;;;;19.41;59.73;100936.97;5043829;28;20052;-45
2022/10/25 04:36:33;;;;;;;0.45;0.32;;;;;;;19.44;59.81;100942.06;5045545;28;20033;-45
2022/10/25 04:38:59;;;;;;;0.88;0.47;;;;;;;19.53;59.51;100944.22;5041729;28;20033;-45
2022/10/25 04:41:24;;;;;;;0.40;0.30;;;;;;;19.54;59.69;100945.91;5042450;28;20037;-47
2022/10/25 04:43:50;;;;;;;0.52;0.30;;;;;;;19.61;59.53;100947.25;5046431;28;20477;-45
2022/10/25 04:46:16;;;;;;;0.38;0.30;;;;;;;19.65;59.53;100954.06;5045176;28;20033;-47
2022/10/25 04:48:41;;;;;;;0.30;0.30;;;;;;;19.70;59.38;100945.88;5043041;28;20103;-48
2022/10/25 04:51:08;;;;;;;0.30;0.20;;;;;;;19.75;59.18;100946.50;5049484;28;20445;-46
2022/10/25 04:53:33;;;;;;;0.30;0.30;;;;;;;19.81;59.02;100946.16;5052792;28;20036;-44
2022/10/25 04:56:01;;;;;;;0.40;0.40;;;;;;;19.83;59.13;100954.81;5045068;28;20082;-45
2022/10/25 04:58:27;;;;;;;0.40;0.40;;;;;;;19.87;58.93;100959.00;5047164;28;20170;-46
2022/10/25 05:00:57;;;;;;;0.40;0.35;;;;;;;19.88;58.95;100962.50;5047680;28;20498;-45
2022/10/25 05:03:22;;;;;;;0.35;0.30;;;;;;;19.90;59.03;100963.25;5046286;28;21791;-44
2022/10/25 05:05:48;;;;;;;0.35;0.28;;;;;;;19.94;58.90;100962.97;5049233;28;20059;-46
2022/10/25 05:08:13;;;;;;;0.30;0.20;;;;;;;19.96;58.72;100965.53;5062628;28;20093;-45
2022/10/25 05:10:38;;;;;;;0.35;0.30;;;;;;;19.95;58.80;100963.81;5054006;28;20052;-45
2022/10/25 05:13:04;;;;;;;0.20;0.10;;;;;;;19.93;58.90;100963.94;5053439;28;20434;-45
2022/10/25 05:15:29;;;;;;;0.30;0.30;;;;;;;19.93;58.81;100969.19;5045717;28;20040;-46
2022/10/25 05:17:59;;;;;;;0.95;0.30;;;;;;;19.94;58.94;100972.66;5051981;28;20044;-46
2022/10/25 05:20:25;;;;;;;0.20;0.20;;;;;;;19.94;58.76;100973.53;5048697;28;20418;-45
2022/10/25 05:22:50;;;;;;;0.40;0.40;;;;;;;19.98;58.94;100976.84;5050513;28;20679;-46
2022/10/25 05:25:16;;;;;;;0.50;0.25;;;;;;;20.00;58.83;100980.22;5047975;28;20044;-45
2022/10/25 05:27:42;;;;;;;0.22;0.20;;;;;;;19.95;58.86;100983.13;5054774;28;20035;-46
2022/10/25 05:30:08;;;;;;;0.57;0.50;;;;;;;19.92;58.73;100978.03;5047445;28;20829;-47
2022/10/25 05:32:33;;;;;;;2.92;0.40;;;;;;;19.97;58.71;100983.03;5049040;28;20027;-46
2022/10/25 05:34:59;;;;;;;2.00;0.40;;;;;;;20.01;58.46;100985.44;5044508;28;20032;-47
2022/10/25 05:37:24;;;;;;;1.50;0.52;;;;;;;20.03;58.33;100994.09;5052145;28;20055;-46
2022/10/25 05:39:50;;;;;;;0.55;0.40;;;;;;;20.03;58.36;100993.25;5057939;28;20051;-47
2022/10/25 05:42:15;;;;;;;0.60;0.40;;;;;;;20.01;58.34;100985.44;5045062;28;20047;-47
2022/10/25 05:44:41;;;;;;;1.33;0.40;;;;;;;20.03;58.16;100994.09;5046152;28;20064;-49
2022/10/25 05:47:06;;;;;;;1.65;0.50;;;;;;;20.01;58.30;100998.63;5051874;28;20035;-47
2022/10/25 05:49:38;;;;;;;2.20;0.60;;;;;;;20.00;58.32;100990.78;5052926;28;21011;-48
2022/10/25 05:52:04;;;;;;;3.58;0.55;;;;;;;19.99;58.24;100995.22;5047954;28;20472;-50
2022/10/25 05:54:29;;;;;;;1.92;0.68;;;;;;;20.00;58.63;100996.06;5051530;28;20667;-58
2022/10/25 05:56:55;;;;;;;0.60;0.50;;;;;;;20.02;58.91;100997.69;5046409;28;20079;-56
2022/10/25 05:59:20;;;;;;;0.73;0.40;;;;;;;19.99;58.54;101008.41;5052592;28;20036;-55
2022/10/25 06:01:45;;;;;;;2.05;0.60;;;;;;;20.02;59.26;101005.59;5050949;28;20435;-58
2022/10/25 06:04:12;;;;;;;3.33;0.90;;;;;;;19.94;58.86;101006.94;5042727;28;20047;-57
2022/10/25 06:06:39;;;;;;;1.45;0.55;;;;;;;19.91;58.79;101015.88;5043547;28;20065;-56
2022/10/25 06:09:05;;;;;;;2.75;0.77;;;;;;;19.90;58.96;101014.19;5051806;28;20041;-53
2022/10/25 06:11:31;;;;;;;2.60;0.80;;;;;;;19.88;59.10;101016.03;5042716;28;20108;-55
2022/10/25 06:13:57;;;;;;;3.38;0.98;;;;;;;19.88;59.36;101017.84;5048221;28;20033;-55
2022/10/25 06:16:23;;;;;;;1.70;0.47;;;;;;;19.84;59.17;101022.44;5048957;28;20043;-52
2022/10/25 06:18:49;;;;;;;3.33;0.80;;;;;;;19.82;59.45;101020.84;5049373;28;20547;-53
2022/10/25 06:21:40;;;;;;;1.67;0.85;;;;;;;19.79;59.23;101014.78;5051807;28;20040;-54
2022/10/25 06:24:05;;;;;;;2.58;0.82;;;;;;;19.78;59.44;101014.88;5045889;28;20045;-54
2022/10/25 06:26:31;;;;;;;3.08;0.80;;;;;;;19.80;59.38;101016.50;5051253;28;20028;-55
2022/10/25 06:28:59;;;;;;;2.22;0.57;;;;;;;19.77;59.47;101023.72;5053529;28;20021;-53
2022/10/25 06:31:26;;;;;;;4.80;0.60;;;;;;;19.78;59.39;101020.16;5045384;28;20040;-52
2022/10/25 06:33:51;;;;;;;3.05;0.70;;;;;;;19.78;59.26;101015.72;5050623;28;20040;-53
2022/10/25 06:36:22;;;;;;;1.85;0.60;;;;;;;19.77;59.19;101027.19;5051702;28;20041;-55
2022/10/25 06:38:48;;;;;;;1.67;0.70;;;;;;;19.77;59.54;101031.63;5046072;28;20048;-51
2022/10/25 06:41:16;;;;;;;4.88;0.70;;;;;;;19.77;59.55;101039.53;5044503;28;20167;-51
2022/10/25 06:43:41;;;;;;;2.38;0.77;;;;;;;19.74;59.64;101043.19;5052047;28;20035;-55
2022/10/25 06:46:10;;;;;;;2.17;0.70;;;;;;;19.76;59.35;101057.13;5044829;28;20045;-52
2022/10/25 06:48:35;;;;;;;1.88;0.60;;;;;;;19.75;59.42;101050.16;5049248;28;20128;-48
2022/10/25 06:51:02;;;;;;;1.15;0.63;;;;;;;19.74;59.48;101066.91;5051430;28;20037;-49
2022/10/25 06:53:28;;;;;;;4.80;0.60;;;;;;;19.74;59.39;101066.91;5048630;28;20071;-52
2022/10/25 06:55:53;;;;;;;2.00;0.63;;;;;;;19.71;59.47;101068.84;5044642;28;20021;-49
2022/10/25 06:58:19;;;;;;;1.75;0.52;;;;;;;19.69;59.49;101068.94;5050637;28;20033;-55
2022/10/25 07:00:44;;;;;;;1.77;0.60;;;;;;;19.69;59.58;101068.09;5056047;28;20055;-57
2022/10/25 07:03:09;;;;;;;1.10;0.60;;;;;;;19.68;59.65;101072.50;5042817;28;20044;-54
2022/10/25 07:05:35;;;;;;;1.55;0.50;;;;;;;19.68;59.74;101080.41;5040077;28;20485;-54
2022/10/25 07:08:00;;;;;;;1.80;0.45;;;;;;;19.67;59.76;101086.59;5043490;28;20029;-54
2022/10/25 07:10:25;;;;;;;1.42;0.70;;;;;;;19.66;59.67;101084.94;5051157;28;20037;-57
2022/10/25 07:12:51;;;;;;;1.45;0.55;;;;;;;19.66;59.75;101094.63;5048077;28;20044;-51
2022/10/25 07:15:16;;;;;;;1.60;0.75;;;;;;;19.67;59.68;101091.03;5051292;28;20033;-48
2022/10/25 07:17:41;;;;;;;2.55;0.63;;;;;;;19.66;59.69;101094.63;5045007;28;20128;-52
2022/10/25 07:20:07;;;;;;;3.47;1.25;;;;;;;19.68;59.83;101096.22;5045107;28;20361;-50
2022/10/25 07:22:32;;;;;;;2.17;0.50;;;;;;;19.66;59.92;101094.63;5046707;28;20080;-51
2022/10/25 07:24:58;;;;;;;2.13;0.65;;;;;;;19.72;60.22;101103.06;5043835;28;20055;-49
2022/10/25 07:27:23;;;;;;;1.35;0.63;;;;;;;19.78;59.48;101100.09;5049974;28;20393;-48
2022/10/25 07:29:49;;;;;;;1.42;0.60;;;;;;;19.76;59.89;101107.19;5049180;28;20044;-50
2022/10/25 07:32:14;;;;;;;3.80;0.60;;;;;;;19.83;59.84;101113.00;5050272;28;20028;-49
2022/10/25 07:34:39;;;;;;;2.85;0.60;;;;;;;19.78;59.27;101109.78;5046044;28;20056;-46
2022/10/25 07:37:06;;;;;;;11.57;1.35;;;;;;;19.70;59.51;101114.59;5062773;28;20051;-48
2022/10/25 07:39:31;;;;;;;3.60;0.75;;;;;;;19.69;59.54;101112.91;5050095;28;20222;-47
2022/10/25 07:41:56;;;;;;;3.92;0.93;;;;;;;19.80;59.43;101107.91;5048459;28;20036;-52
2022/10/25 07:44:22;;;;;;;4.70;0.90;;;;;;;19.90;59.55;101103.84;5045130;28;20135;-49
2022/10/25 07:46:49;;;;;;;1.48;0.55;;;;;;;19.80;59.77;101107.91;5044690;28;20028;-49
2022/10/25 07:49:14;;;;;;;4.63;0.60;;;;;;;19.79;60.13;101120.22;5048440;28;20036;-49
2022/10/25 07:51:40;;;;;;;2.15;0.47;;;;;;;19.70;59.53;101114.59;5049125;28;20036;-49
2022/10/25 07:54:05;;;;;;;2.63;0.77;;;;;;;19.66;59.62;101113.91;5044831;28;20040;-49
2022/10/25 07:56:30;;;;;;;1.90;0.70;;;;;;;19.68;59.33;101116.47;5050728;28;20134;-48
2022/10/25 07:58:56;;;;;;;3.33;0.60;;;;;;;19.69;59.40;101113.75;5047271;28;20033;-49
2022/10/25 08:01:24;;;;;;;3.08;0.80;;;;;;;19.67;59.49;101117.38;5043541;28;20041;-49
2022/10/25 08:03:51;;;;;;;3.70;0.70;;;;;;;19.67;59.50;101117.38;5044641;28;20036;-48
2022/10/25 08:06:18;;;;;;;3.45;0.95;;;;;;;19.68;59.50;101119.09;5042551;28;20082;-51
2022/10/25 08:08:43;;;;;;;3.80;0.63;;;;;;;19.67;59.34;101118.25;5045753;28;20493;-49
2022/10/25 08:11:09;;;;;;;2.75;0.70;;;;;;;19.66;59.47;101121.81;5043925;28;20033;-51
2022/10/25 08:13:35;;;;;;;4.88;0.90;;;;;;;19.68;59.49;101114.69;5045723;28;20093;-52
2022/10/25 08:16:01;;;;;;;3.15;0.80;;;;;;;19.67;59.46;101115.59;5044135;28;20040;-52
2022/10/25 08:18:26;;;;;;;2.35;0.70;;;;;;;19.69;59.34;101119.03;5049614;28;20041;-49
2022/10/25 08:20:52;;;;;;;2.25;0.63;;;;;;;19.66;59.67;101115.69;5044966;28;20129;-58
2022/10/25 08:23:17;;;;;;;4.35;0.68;;;;;;;19.83;59.99;101113.00;5042043;28;20036;-52
2022/10/25 08:25:43;;;;;;;2.67;0.98;;;;;;;19.93;59.19;101119.50;5043817;28;20033;-56
2022/10/25 08:28:09;;;;;;;2.55;0.90;;;;;;;19.76;60.10;101116.88;5047631;28;20063;-55
2022/10/25 08:30:34;;;;;;;1.00;0.40;;;;;;;19.72;59.43;101118.00;5045035;28;20501;-56
2022/10/25 08:33:00;;;;;;;1.88;0.73;;;;;;;19.70;59.68;101117.22;5048824;28;20044;-56
2022/10/25 08:35:25;;;;;;;3.40;0.75;;;;;;;19.75;59.95;101112.56;5048388;28;20033;-56
2022/10/25 08:37:51;;;;;;;1.42;0.80;;;;;;;19.80;60.83;101119.28;5044260;28;20028;-57
2022/10/25 08:40:25;;;;;;;1.95;0.80;;;;;;;19.78;59.36;101117.69;5046593;28;20047;-52
2022/10/25 08:43:29;;;;;;;3.03;0.60;;;;;;;19.69;59.44;101111.13;5049177;28;20036;-55
2022/10/25 08:46:00;;;;;;;1.95;0.73;;;;;;;19.68;59.73;101117.31;5035811;28;20041;-56
2022/10/25 08:48:33;;;;;;;1.00;0.47;;;;;;;19.72;59.82;101118.88;5050066;28;20052;-52
2022/10/25 08:51:04;;;;;;;1.60;0.50;;;;;;;19.77;60.08;101121.25;5048849;28;20037;-56
2022/10/25 08:53:44;;;;;;;2.38;0.55;;;;;;;19.78;59.61;101120.31;5049887;28;20040;-54
2022/10/25 08:56:14;;;;;;;3.33;0.57;;;;;;;19.74;60.04;101122.25;5055317;28;20025;-56
2022/10/25 08:58:46;;;;;;;1.45;0.70;;;;;;;19.73;59.58;101125.81;5054691;28;20790;-56
2022/10/25 09:01:21;;;;;;;1.67;0.60;;;;;;;19.66;59.74;101124.47;5053332;28;20147;-58
2022/10/25 09:03:47;;;;;;;0.85;0.40;;;;;;;19.70;60.12;101127.75;5054260;28;20131;-53
2022/10/25 09:06:32;;;;;;;1.05;0.57;;;;;;;19.67;59.67;101131.41;5054872;28;20040;-57
2022/10/25 09:08:57;;;;;;;;;;;;;;;19.64;59.93;101128.94;5044916;28;20040;-57
2022/10/25 09:11:47;;;;;;;2.15;0.60;;;;;;;19.84;61.30;101134.94;5045406;28;20174;-58
2022/10/25 09:14:26;;;;;;;4.22;1.00;;;;;;;19.94;59.22;101137.00;5045158;28;20052;-51
2022/10/25 09:17:01;;;;;;;2.30;0.50;;;;;;;19.82;60.18;101142.94;5050595;28;20041;-52
2022/10/25 09:19:33;;;;;;;2.25;0.55;;;;;;;19.75;59.81;101147.69;5049183;28;20066;-52
2022/10/25 09:22:23;;;;;;;3.72;0.60;;;;;;;19.76;59.78;101148.53;5046534;28;20050;-50
2022/10/25 09:25:18;;;;;;;2.75;0.50;;;;;;;19.81;59.84;101151.78;5054187;28;20048;-51
2022/10/25 09:28:06;;;;;;;;;;;;;;;19.70;60.01;101149.69;5052567;28;20892;-51
2022/10/25 09:30:41;;;;;;;2.90;0.68;;;;;;;19.74;59.81;101155.66;5051404;28;19917;-52
2022/10/25 09:33:12;;;;;;;2.97;0.75;;;;;;;19.77;59.71;101156.38;5052872;28;20424;-53
2022/10/25 09:35:45;;;;;;;3.92;0.80;;;;;;;19.72;59.92;101168.09;5052293;28;20040;-53
2022/10/25 09:38:22;;;;;;;2.35;0.68;;;;;;;19.68;60.01;101172.66;5050653;28;20451;-54
2022/10/25 09:41:00;;;;;;;1.23;0.82;;;;;;;19.68;60.09;101169.16;5047957;28;20412;-54
2022/10/25 09:43:34;;;;;;;1.15;0.68;;;;;;;19.75;59.77;101178.47;5048595;28;20048;-55
2022/10/25 09:46:05;;;;;;;1.95;0.77;;;;;;;19.69;59.75;101178.78;5052677;28;20033;-49
2022/10/25 09:48:42;;;;;;;1.30;0.50;;;;;;;19.83;59.71;101180.69;5048711;28;20037;-50
2022/10/25 09:51:26;;;;;;;3.20;0.73;;;;;;;19.99;60.25;101187.72;5049904;28;20509;-49
2022/10/25 09:53:53;;;;;;;1.33;0.50;;;;;;;19.99;60.52;101182.47;5052104;28;20139;-53
2022/10/25 09:56:18;;;;;;;1.80;0.80;;;;;;;19.93;60.50;101188.06;5047150;28;20036;-57
2022/10/25 09:58:46;;;;;;;2.03;0.50;;;;;;;20.05;60.38;101197.09;5063303;28;20037;-56
2022/10/25 10:01:16;;;;;;;1.70;0.65;;;;;;;19.96;60.68;101193.16;5043441;28;20037;-53
2022/10/25 10:03:42;;;;;;;7.97;0.70;;;;;;;19.87;61.40;101200.69;5047176;28;20040;-54
2022/10/25 10:06:18;;;;;;;1.20;0.47;;;;;;;19.79;61.37;101209.84;5049325;28;20043;-54
2022/10/25 10:08:50;;;;;;;2.25;0.70;;;;;;;19.91;61.27;101202.22;5043735;28;20053;-51
2022/10/25 10:11:17;;;;;;;2.70;0.88;;;;;;;19.91;61.57;101200.44;5045777;28;20033;-52
2022/10/25 10:13:54;;;;;;;5.93;0.70;;;;;;;19.99;60.89;101206.19;5040889;28;20632;-55
2022/10/25 10:16:26;;;;;;;5.35;0.85;;;;;;;20.09;60.77;101198.66;5042157;28;20396;-53
2022/10/25 10:19:11;;;;;;;2.85;0.70;;;;;;;20.01;61.21;101209.59;5051935;28;20064;-56
2022/10/25 10:21:56;;;;;;;3.92;0.90;;;;;;;19.79;61.51;101207.22;5047888;28;20043;-57
2022/10/25 10:24:36;;;;;;;3.22;0.90;;;;;;;19.83;61.48;101209.69;5050284;28;20033;-57
2022/10/25 10:27:21;;;;;;;3.08;0.60;;;;;;;19.84;61.62;101214.03;5051527;28;20043;-55
2022/10/25 10:29:49;;;;;;;2.10;0.90;;;;;;;19.85;61.89;101210.50;5043285;28;20123;-57
2022/10/25 10:32:36;;;;;;;2.00;0.63;;;;;;;19.78;62.00;101220.50;5052220;28;20032;-58
2022/10/25 10:35:05;;;;;;;5.60;1.05;;;;;;;19.91;61.91;101213.63;5043320;28;20040;-56
2022/10/25 10:37:31;;;;;;;3.08;0.73;;;;;;;19.79;62.08;101222.19;5044337;28;20033;-49
2022/10/25 10:40:07;;;;;;;3.38;1.27;;;;;;;19.85;62.92;101224.50;5047607;28;20044;-51
2022/10/25 10:42:40;;;;;;;5.15;0.88;;;;;;;19.87;62.43;101219.16;5059292;28;20035;-53
2022/10/25 10:45:08;;;;;;;5.25;1.27;;;;;;;19.93;62.05;101217.06;5046894;28;20054;-56
2022/10/25 10:47:48;;;;;;;11.57;2.50;;;;;;;19.84;62.20;101220.19;5040605;28;20028;-57
2022/10/25 10:50:25;;;;;;;15.45;3.03;;;;;;;19.89;62.54;101228.69;5052194;28;20035;-58
2022/10/25 10:53:04;;;;;;;15.52;3.90;;;;;;;19.83;62.56;101221.09;5051153;28;20048;-56
2022/10/25 10:55:34;;;;;;;15.43;4.13;;;;;;;19.78;62.91;101221.34;5052391;28;20068;-56
2022/10/25 10:58:06;;;;;;;16.90;5.35;;;;;;;19.78;62.86;101216.06;5049846;28;20497;-58
2022/10/25 11:00:33;;;;;;;16.05;6.70;;;;;;;19.85;63.10;101221.84;5042945;28;20083;-57
2022/10/25 11:02:59;;;;;;;21.10;7.15;;;;;;;19.83;63.15;101215.81;5043557;28;20032;-53
2022/10/25 11:05:30;;;;;;;10.60;2.88;;;;;;;20.24;62.61;101221.56;5051156;28;20139;-50
2022/10/25 11:08:19;;;;;;;17.58;6.57;;;;;;;20.25;62.11;101223.28;5048394;28;20113;-53
2022/10/25 11:10:45;;;;;;;24.25;6.15;;;;;;;20.31;62.20;101226.44;5034994;28;20486;-51
2022/10/25 11:13:16;;;;;;;29.60;7.60;;;;;;;19.96;62.89;101214.25;5046653;28;20074;-59
2022/10/25 11:16:00;;;;;;;29.15;9.15;;;;;;;20.12;62.51;101225.72;5049137;28;20075;-52
2022/10/25 11:18:49;;;;;;;37.40;10.70;;;;;;;19.96;63.24;101229.22;5050002;28;20588;-53
2022/10/25 11:21:33;;;;;;;30.00;9.27;;;;;;;19.87;63.58;101227.06;5048808;28;20494;-52
2022/10/25 11:24:08;;;;;;;27.92;8.35;;;;;;;19.92;63.22;101225.03;5045046;28;20040;-50
2022/10/25 11:26:43;;;;;;;25.90;7.38;;;;;;;19.92;62.96;101222.41;5043275;28;20021;-51
2022/10/25 11:29:46;;;;;;;25.00;7.72;;;;;;;19.84;63.77;101221.97;5044260;28;20074;-50
2022/10/25 11:32:39;;;;;;;27.13;9.10;;;;;;;19.82;63.75;101215.91;5049310;28;20040;-50
2022/10/25 11:35:37;;;;;;;24.85;6.85;;;;;;;19.78;63.81;101217.84;5048631;28;20044;-51
2022/10/25 11:38:16;;;;;;;28.10;7.60;;;;;;;19.77;63.86;101218.78;5059391;28;20041;-54
2022/10/25 11:40:50;;;;;;;25.77;7.82;;;;;;;19.76;63.65;101211.78;5042980;28;20099;-50
2022/10/25 11:43:38;;;;;;;27.13;7.90;;;;;;;19.75;63.59;101210.09;5048835;28;20041;-50